Minneapolis, Minnesota
Traffic Map
Current Weather Conditions
Minneapolis, Minnesota
Broken Clouds
Broken Clouds
67°
Feels Like: 67°
Wind Chill: 67° Ceiling: 1000
Heat Index: 67° Visibility: 10mi
Dew Point: 64° Wind: 7mph
Humidity: 90% Direction: 330° (NNW)
Pressure: 29.51in Gusts: 0mph
Raw Report DataKMSP 171210Z 33006KT 10SM BKN010 BKN031 BKN250 19/18 A2951 RMK AO2 PRESRR T01940178
Traffic Incident Summary
Active as of:
Severity:
Category:
InformationThere was an issue retrieving the traffic information for this location. Please try a different location or try again shortly.
Advertisements